sensor_id;sensor_type;location;lat;lon;timestamp;pressure;altitude;pressure_sealevel;temperature;humidity
76321;BME280;65132;52.088;5.402;2023-03-16T00:00:16;101893.38;;;5.03;69.60
76321;BME280;65132;52.088;5.402;2023-03-16T00:02:45;101888.97;;;5.02;69.81
76321;BME280;65132;52.088;5.402;2023-03-16T00:05:12;101892.69;;;4.99;70.25
76321;BME280;65132;52.088;5.402;2023-03-16T00:07:44;101895.38;;;4.99;70.11
76321;BME280;65132;52.088;5.402;2023-03-16T00:10:11;101891.94;;;4.97;70.20
76321;BME280;65132;52.088;5.402;2023-03-16T00:12:38;101893.56;;;5.00;70.50
76321;BME280;65132;52.088;5.402;2023-03-16T00:15:08;101885.69;;;4.97;71.24
76321;BME280;65132;52.088;5.402;2023-03-16T00:17:40;101878.50;;;4.97;71.06
76321;BME280;65132;52.088;5.402;2023-03-16T00:20:08;101869.50;;;4.98;70.68
76321;BME280;65132;52.088;5.402;2023-03-16T00:22:58;101865.09;;;4.97;72.04
76321;BME280;65132;52.088;5.402;2023-03-16T00:25:27;101872.88;;;5.02;71.25
76321;BME280;65132;52.088;5.402;2023-03-16T00:27:55;101867.53;;;5.02;71.79
76321;BME280;65132;52.088;5.402;2023-03-16T00:30:24;101865.03;;;4.99;71.93
76321;BME280;65132;52.088;5.402;2023-03-16T00:32:51;101864.06;;;5.00;72.22
76321;BME280;65132;52.088;5.402;2023-03-16T00:35:18;101866.91;;;4.97;72.98
76321;BME280;65132;52.088;5.402;2023-03-16T00:37:46;101859.03;;;4.94;72.70
76321;BME280;65132;52.088;5.402;2023-03-16T00:40:13;101857.19;;;4.94;72.74
76321;BME280;65132;52.088;5.402;2023-03-16T00:42:42;101856.09;;;4.98;72.91
76321;BME280;65132;52.088;5.402;2023-03-16T00:45:16;101855.22;;;4.98;72.46
76321;BME280;65132;52.088;5.402;2023-03-16T00:47:42;101849.16;;;4.94;73.62
76321;BME280;65132;52.088;5.402;2023-03-16T00:50:10;101843.97;;;4.91;73.55
76321;BME280;65132;52.088;5.402;2023-03-16T00:52:40;101854.44;;;4.96;73.32
76321;BME280;65132;52.088;5.402;2023-03-16T00:55:07;101850.91;;;4.95;73.67
76321;BME280;65132;52.088;5.402;2023-03-16T00:57:34;101848.31;;;4.94;73.71
76321;BME280;65132;52.088;5.402;2023-03-16T01:00:00;101843.78;;;4.94;73.95
76321;BME280;65132;52.088;5.402;2023-03-16T01:02:27;101840.09;;;4.97;74.00
76321;BME280;65132;52.088;5.402;2023-03-16T01:04:53;101827.56;;;4.97;74.29
76321;BME280;65132;52.088;5.402;2023-03-16T01:07:23;101821.50;;;4.94;74.85
76321;BME280;65132;52.088;5.402;2023-03-16T01:09:52;101822.50;;;4.91;75.89
76321;BME280;65132;52.088;5.402;2023-03-16T01:12:22;101817.06;;;4.93;74.69
76321;BME280;65132;52.088;5.402;2023-03-16T01:14:52;101814.38;;;4.93;74.81
76321;BME280;65132;52.088;5.402;2023-03-16T01:17:18;101811.69;;;4.93;74.78
76321;BME280;65132;52.088;5.402;2023-03-16T01:19:45;101800.19;;;4.90;75.15
76321;BME280;65132;52.088;5.402;2023-03-16T01:22:15;101806.34;;;4.93;74.96
76321;BME280;65132;52.088;5.402;2023-03-16T01:24:44;101808.94;;;4.94;76.10
76321;BME280;65132;52.088;5.402;2023-03-16T01:27:10;101809.09;;;4.91;76.13
76321;BME280;65132;52.088;5.402;2023-03-16T01:29:40;101811.53;;;4.96;75.61
76321;BME280;65132;52.088;5.402;2023-03-16T01:32:10;101786.69;;;4.92;75.90
76321;BME280;65132;52.088;5.402;2023-03-16T01:34:41;101791.03;;;4.95;75.73
76321;BME280;65132;52.088;5.402;2023-03-16T01:37:07;101786.78;;;4.90;76.43
76321;BME280;65132;52.088;5.402;2023-03-16T01:39:34;101783.16;;;4.92;76.49
76321;BME280;65132;52.088;5.402;2023-03-16T01:42:03;101783.94;;;4.94;76.40
76321;BME280;65132;52.088;5.402;2023-03-16T01:44:53;101777.72;;;4.93;76.05
76321;BME280;65132;52.088;5.402;2023-03-16T01:47:23;101774.25;;;4.91;76.50
76321;BME280;65132;52.088;5.402;2023-03-16T01:49:55;101775.97;;;4.92;76.37
76321;BME280;65132;52.088;5.402;2023-03-16T01:52:26;101776.13;;;4.89;77.07
76321;BME280;65132;52.088;5.402;2023-03-16T01:55:07;101774.41;;;4.88;77.25
76321;BME280;65132;52.088;5.402;2023-03-16T01:57:39;101774.25;;;4.91;77.10
76321;BME280;65132;52.088;5.402;2023-03-16T02:00:13;101768.88;;;4.91;77.45
76321;BME280;65132;52.088;5.402;2023-03-16T02:02:45;101751.06;;;4.90;76.81
76321;BME280;65132;52.088;5.402;2023-03-16T02:05:31;101754.50;;;4.92;77.39
76321;BME280;65132;52.088;5.402;2023-03-16T02:07:59;101758.16;;;4.91;77.57
76321;BME280;65132;52.088;5.402;2023-03-16T02:10:27;101749.31;;;4.89;77.89
76321;BME280;65132;52.088;5.402;2023-03-16T02:12:57;101748.28;;;4.92;76.98
76321;BME280;65132;52.088;5.402;2023-03-16T02:15:24;101743.63;;;4.95;77.52
76321;BME280;65132;52.088;5.402;2023-03-16T02:17:51;101734.63;;;4.96;77.45
76321;BME280;65132;52.088;5.402;2023-03-16T02:20:34;101730.22;;;4.95;77.61
76321;BME280;65132;52.088;5.402;2023-03-16T02:23:03;101731.94;;;4.96;77.46
76321;BME280;65132;52.088;5.402;2023-03-16T02:25:39;101728.31;;;4.97;78.36
76321;BME280;65132;52.088;5.402;2023-03-16T02:30:46;101722.19;;;4.95;77.76
76321;BME280;65132;52.088;5.402;2023-03-16T02:33:13;101723.00;;;4.96;78.00
76321;BME280;65132;52.088;5.402;2023-03-16T02:35:41;101721.03;;;4.99;77.83
76321;BME280;65132;52.088;5.402;2023-03-16T02:38:07;101715.66;;;4.99;77.69
76321;BME280;65132;52.088;5.402;2023-03-16T02:40:36;101719.50;;;4.95;78.61
76321;BME280;65132;52.088;5.402;2023-03-16T02:45:39;101717.84;;;4.93;79.22
76321;BME280;65132;52.088;5.402;2023-03-16T02:48:10;101727.63;;;4.94;80.12
76321;BME280;65132;52.088;5.402;2023-03-16T02:50:43;101733.69;;;4.97;79.58
76321;BME280;65132;52.088;5.402;2023-03-16T02:53:09;101734.78;;;4.93;79.18
76321;BME280;65132;52.088;5.402;2023-03-16T02:55:36;101733.00;;;4.94;79.23
76321;BME280;65132;52.088;5.402;2023-03-16T02:58:02;101740.16;;;4.93;79.55
76321;BME280;65132;52.088;5.402;2023-03-16T03:00:42;101737.66;;;4.90;79.76
76321;BME280;65132;52.088;5.402;2023-03-16T03:03:08;101731.69;;;4.85;79.68
76321;BME280;65132;52.088;5.402;2023-03-16T03:05:37;101738.41;;;4.92;80.53
76321;BME280;65132;52.088;5.402;2023-03-16T03:08:07;101727.78;;;4.90;80.23
76321;BME280;65132;52.088;5.402;2023-03-16T03:10:34;101726.84;;;4.92;80.23
76321;BME280;65132;52.088;5.402;2023-03-16T03:13:03;101722.59;;;4.87;80.22
76321;BME280;65132;52.088;5.402;2023-03-16T03:15:32;101721.72;;;4.87;80.36
76321;BME280;65132;52.088;5.402;2023-03-16T03:17:59;101701.41;;;4.83;80.96
76321;BME280;65132;52.088;5.402;2023-03-16T03:20:31;101719.63;;;4.92;80.15
76321;BME280;65132;52.088;5.402;2023-03-16T03:22:58;101714.28;;;4.92;80.27
76321;BME280;65132;52.088;5.402;2023-03-16T03:25:24;101716.03;;;4.93;80.83
76321;BME280;65132;52.088;5.402;2023-03-16T03:27:51;101711.59;;;4.92;80.30
76321;BME280;65132;52.088;5.402;2023-03-16T03:30:19;101704.59;;;4.89;80.24
76321;BME280;65132;52.088;5.402;2023-03-16T03:32:47;101705.47;;;4.90;81.53
76321;BME280;65132;52.088;5.402;2023-03-16T03:35:14;101711.69;;;4.90;82.02
76321;BME280;65132;52.088;5.402;2023-03-16T03:37:42;101708.50;;;4.84;82.14
76321;BME280;65132;52.088;5.402;2023-03-16T03:40:13;101692.22;;;4.87;82.01
76321;BME280;65132;52.088;5.402;2023-03-16T03:42:40;101701.31;;;4.84;82.13
76321;BME280;65132;52.088;5.402;2023-03-16T03:45:08;101680.38;;;4.75;82.97
76321;BME280;65132;52.088;5.402;2023-03-16T03:47:34;101693.56;;;4.80;83.03
76321;BME280;65132;52.088;5.402;2023-03-16T03:50:01;101699.94;;;4.77;83.59
76321;BME280;65132;52.088;5.402;2023-03-16T03:52:30;101688.53;;;4.74;83.91
76321;BME280;65132;52.088;5.402;2023-03-16T03:55:09;101675.28;;;4.71;84.12
76321;BME280;65132;52.088;5.402;2023-03-16T03:57:36;101664.91;;;4.65;84.62
76321;BME280;65132;52.088;5.402;2023-03-16T04:00:04;101683.34;;;4.71;85.07
76321;BME280;65132;52.088;5.402;2023-03-16T04:02:31;101677.38;;;4.66;85.49
76321;BME280;65132;52.088;5.402;2023-03-16T04:04:57;101666.03;;;4.61;85.98
76321;BME280;65132;52.088;5.402;2023-03-16T04:07:23;101674.78;;;4.64;85.61
76321;BME280;65132;52.088;5.402;2023-03-16T04:09:50;101679.25;;;4.64;85.08
76321;BME280;65132;52.088;5.402;2023-03-16T04:12:16;101666.97;;;4.60;86.25
76321;BME280;65132;52.088;5.402;2023-03-16T04:14:43;101661.47;;;4.63;86.60
76321;BME280;65132;52.088;5.402;2023-03-16T04:17:09;101662.59;;;4.59;86.71
76321;BME280;65132;52.088;5.402;2023-03-16T04:19:35;101659.91;;;4.59;86.14
76321;BME280;65132;52.088;5.402;2023-03-16T04:22:05;101656.34;;;4.58;85.86
76321;BME280;65132;52.088;5.402;2023-03-16T04:24:31;101648.41;;;4.57;85.95
76321;BME280;65132;52.088;5.402;2023-03-16T04:27:00;101648.41;;;4.57;86.59
76321;BME280;65132;52.088;5.402;2023-03-16T04:29:26;101651.94;;;4.57;86.82
76321;BME280;65132;52.088;5.402;2023-03-16T04:31:57;101650.06;;;4.59;86.90
76321;BME280;65132;52.088;5.402;2023-03-16T04:34:23;101658.19;;;4.58;86.23
76321;BME280;65132;52.088;5.402;2023-03-16T04:36:51;101660.94;;;4.56;86.59
76321;BME280;65132;52.088;5.402;2023-03-16T04:39:20;101646.78;;;4.54;86.28
76321;BME280;65132;52.088;5.402;2023-03-16T04:41:47;101659.72;;;4.62;86.85
76321;BME280;65132;52.088;5.402;2023-03-16T04:44:14;101651.84;;;4.59;86.27
76321;BME280;65132;52.088;5.402;2023-03-16T04:46:40;101652.72;;;4.59;86.75
76321;BME280;65132;52.088;5.402;2023-03-16T04:49:12;101652.81;;;4.58;86.48
76321;BME280;65132;52.088;5.402;2023-03-16T04:51:41;101653.56;;;4.60;86.82
76321;BME280;65132;52.088;5.402;2023-03-16T04:54:11;101656.53;;;4.55;86.47
76321;BME280;65132;52.088;5.402;2023-03-16T04:56:38;101647.28;;;4.61;87.26
76321;BME280;65132;52.088;5.402;2023-03-16T04:59:04;101646.59;;;4.57;85.92
76321;BME280;65132;52.088;5.402;2023-03-16T05:01:33;101649.19;;;4.59;86.08
76321;BME280;65132;52.088;5.402;2023-03-16T05:04:00;101645.53;;;4.60;86.80
76321;BME280;65132;52.088;5.402;2023-03-16T05:06:27;101650.16;;;4.58;86.12
76321;BME280;65132;52.088;5.402;2023-03-16T05:08:54;101651.78;;;4.60;85.92
76321;BME280;65132;52.088;5.402;2023-03-16T05:11:20;101653.16;;;4.67;85.70
76321;BME280;65132;52.088;5.402;2023-03-16T05:13:47;101647.88;;;4.66;84.90
76321;BME280;65132;52.088;5.402;2023-03-16T05:16:14;101644.34;;;4.65;85.55
76321;BME280;65132;52.088;5.402;2023-03-16T05:18:43;101635.59;;;4.62;85.49
76321;BME280;65132;52.088;5.402;2023-03-16T05:21:13;101647.09;;;4.64;86.27
76321;BME280;65132;52.088;5.402;2023-03-16T05:23:40;101645.28;;;4.64;86.14
76321;BME280;65132;52.088;5.402;2023-03-16T05:26:09;101638.28;;;4.62;86.34
76321;BME280;65132;52.088;5.402;2023-03-16T05:28:38;101651.69;;;4.62;86.27
76321;BME280;65132;52.088;5.402;2023-03-16T05:31:04;101641.66;;;4.65;86.05
76321;BME280;65132;52.088;5.402;2023-03-16T05:33:31;101639.94;;;4.64;86.86
76321;BME280;65132;52.088;5.402;2023-03-16T05:35:57;101638.03;;;4.66;85.87
76321;BME280;65132;52.088;5.402;2023-03-16T05:38:24;101635.34;;;4.66;85.83
76321;BME280;65132;52.088;5.402;2023-03-16T05:40:50;101635.41;;;4.65;86.27
76321;BME280;65132;52.088;5.402;2023-03-16T05:43:23;101638.03;;;4.66;85.71
76321;BME280;65132;52.088;5.402;2023-03-16T05:45:50;101641.56;;;4.67;87.54
76321;BME280;65132;52.088;5.402;2023-03-16T05:48:16;101637.06;;;4.67;86.88
76321;BME280;65132;52.088;5.402;2023-03-16T05:50:46;101630.94;;;4.65;87.28
76321;BME280;65132;52.088;5.402;2023-03-16T05:53:13;101632.59;;;4.68;86.51
76321;BME280;65132;52.088;5.402;2023-03-16T05:55:39;101630.00;;;4.66;88.09
76321;BME280;65132;52.088;5.402;2023-03-16T05:58:06;101626.53;;;4.64;87.56
76321;BME280;65132;52.088;5.402;2023-03-16T06:00:32;101616.66;;;4.65;87.69
76321;BME280;65132;52.088;5.402;2023-03-16T06:03:01;101618.22;;;4.69;87.55
76321;BME280;65132;52.088;5.402;2023-03-16T06:05:30;101621.59;;;4.72;87.35
76321;BME280;65132;52.088;5.402;2023-03-16T06:07:57;101621.78;;;4.69;87.18
76321;BME280;65132;52.088;5.402;2023-03-16T06:10:25;101620.63;;;4.73;87.37
76321;BME280;65132;52.088;5.402;2023-03-16T06:12:55;101627.03;;;4.71;87.44
76321;BME280;65132;52.088;5.402;2023-03-16T06:15:24;101620.47;;;4.76;87.13
76321;BME280;65132;52.088;5.402;2023-03-16T06:17:54;101621.41;;;4.75;87.05
76321;BME280;65132;52.088;5.402;2023-03-16T06:20:22;101622.88;;;4.81;87.01
76321;BME280;65132;52.088;5.402;2023-03-16T06:22:49;101605.72;;;4.83;86.39
76321;BME280;65132;52.088;5.402;2023-03-16T06:25:19;101605.72;;;4.83;85.98
76321;BME280;65132;52.088;5.402;2023-03-16T06:27:46;101616.13;;;4.89;86.54
76321;BME280;65132;52.088;5.402;2023-03-16T06:30:15;101605.09;;;4.94;86.31
76321;BME280;65132;52.088;5.402;2023-03-16T06:32:42;101600.63;;;4.95;85.91
76321;BME280;65132;52.088;5.402;2023-03-16T06:35:09;101602.31;;;4.96;85.89
76321;BME280;65132;52.088;5.402;2023-03-16T06:37:37;101596.22;;;4.94;86.15
76321;BME280;65132;52.088;5.402;2023-03-16T06:40:04;101598.63;;;4.98;86.63
76321;BME280;65132;52.088;5.402;2023-03-16T06:42:30;101602.00;;;5.02;86.23
76321;BME280;65132;52.088;5.402;2023-03-16T06:44:57;101594.03;;;5.00;86.29
76321;BME280;65132;52.088;5.402;2023-03-16T06:47:26;101583.22;;;5.02;86.73
76321;BME280;65132;52.088;5.402;2023-03-16T06:49:52;101593.66;;;5.06;85.88
76321;BME280;65132;52.088;5.402;2023-03-16T06:52:19;101594.34;;;5.10;86.32
76321;BME280;65132;52.088;5.402;2023-03-16T06:54:48;101576.53;;;5.09;87.48
76321;BME280;65132;52.088;5.402;2023-03-16T06:57:21;101571.84;;;5.12;86.30
76321;BME280;65132;52.088;5.402;2023-03-16T06:59:47;101586.53;;;5.21;86.54
76321;BME280;65132;52.088;5.402;2023-03-16T07:02:14;101587.38;;;5.21;85.81
76321;BME280;65132;52.088;5.402;2023-03-16T07:04:41;101589.91;;;5.24;85.97
76321;BME280;65132;52.088;5.402;2023-03-16T07:07:08;101581.84;;;5.24;86.26
76321;BME280;65132;52.088;5.402;2023-03-16T07:09:35;101580.78;;;5.27;85.92
76321;BME280;65132;52.088;5.402;2023-03-16T07:12:06;101572.94;;;5.24;86.36
76321;BME280;65132;52.088;5.402;2023-03-16T07:14:33;101577.41;;;5.23;85.05
76321;BME280;65132;52.088;5.402;2023-03-16T07:17:01;101572.44;;;5.31;84.87
76321;BME280;65132;52.088;5.402;2023-03-16T07:19:28;101574.47;;;5.28;84.52
76321;BME280;65132;52.088;5.402;2023-03-16T07:21:54;101579.66;;;5.31;84.67
76321;BME280;65132;52.088;5.402;2023-03-16T07:24:22;101581.47;;;5.30;85.26
76321;BME280;65132;52.088;5.402;2023-03-16T07:26:49;101571.69;;;5.29;85.91
76321;BME280;65132;52.088;5.402;2023-03-16T07:29:18;101573.41;;;5.30;85.88
76321;BME280;65132;52.088;5.402;2023-03-16T07:31:46;101574.53;;;5.26;86.18
76321;BME280;65132;52.088;5.402;2023-03-16T07:34:14;101575.50;;;5.25;85.91
76321;BME280;65132;52.088;5.402;2023-03-16T07:36:40;101563.31;;;5.20;87.02
76321;BME280;65132;52.088;5.402;2023-03-16T07:39:07;101578.28;;;5.24;86.03
76321;BME280;65132;52.088;5.402;2023-03-16T07:41:36;101562.53;;;5.18;87.02
76321;BME280;65132;52.088;5.402;2023-03-16T07:44:03;101558.44;;;5.12;86.96
76321;BME280;65132;52.088;5.402;2023-03-16T07:46:29;101557.38;;;5.15;88.08
76321;BME280;65132;52.088;5.402;2023-03-16T07:49:03;101572.44;;;5.17;87.15
76321;BME280;65132;52.088;5.402;2023-03-16T07:51:30;101571.84;;;5.12;87.34
76321;BME280;65132;52.088;5.402;2023-03-16T07:53:56;101557.56;;;5.12;85.97
76321;BME280;65132;52.088;5.402;2023-03-16T07:56:25;101566.56;;;5.11;86.74
76321;BME280;65132;52.088;5.402;2023-03-16T07:58:56;101573.38;;;5.16;88.06
76321;BME280;65132;52.088;5.402;2023-03-16T08:01:23;101586.44;;;5.22;87.47
76321;BME280;65132;52.088;5.402;2023-03-16T08:03:51;101583.84;;;5.21;88.02
76321;BME280;65132;52.088;5.402;2023-03-16T08:06:24;101580.97;;;5.24;87.28
76321;BME280;65132;52.088;5.402;2023-03-16T08:08:52;101577.53;;;5.36;87.09
76321;BME280;65132;52.088;5.402;2023-03-16T08:11:21;101563.94;;;5.39;86.29
76321;BME280;65132;52.088;5.402;2023-03-16T08:13:50;101572.78;;;5.55;87.85
76321;BME280;65132;52.088;5.402;2023-03-16T08:16:17;101560.09;;;5.57;86.38
76321;BME280;65132;52.088;5.402;2023-03-16T08:18:49;101548.91;;;5.64;85.79
76321;BME280;65132;52.088;5.402;2023-03-16T08:21:23;101553.72;;;5.73;86.35
76321;BME280;65132;52.088;5.402;2023-03-16T08:23:51;101550.53;;;5.81;85.77
76321;BME280;65132;52.088;5.402;2023-03-16T08:26:23;101552.88;;;5.87;84.78
76321;BME280;65132;52.088;5.402;2023-03-16T08:28:53;101541.53;;;5.82;84.10
76321;BME280;65132;52.088;5.402;2023-03-16T08:31:20;101540.84;;;5.92;83.79
76321;BME280;65132;52.088;5.402;2023-03-16T08:33:47;101545.06;;;5.96;83.99
76321;BME280;65132;52.088;5.402;2023-03-16T08:36:17;101557.38;;;6.00;83.34
76321;BME280;65132;52.088;5.402;2023-03-16T08:38:45;101544.69;;;6.02;83.14
76321;BME280;65132;52.088;5.402;2023-03-16T08:41:31;101558.50;;;6.11;82.87
76321;BME280;65132;52.088;5.402;2023-03-16T08:44:04;101544.84;;;6.14;82.89
76321;BME280;65132;52.088;5.402;2023-03-16T08:46:35;101554.47;;;6.18;81.68
76321;BME280;65132;52.088;5.402;2023-03-16T08:49:02;101568.56;;;6.21;81.64
76321;BME280;65132;52.088;5.402;2023-03-16T08:51:29;101539.47;;;6.14;80.99
76321;BME280;65132;52.088;5.402;2023-03-16T08:53:55;101543.50;;;6.21;81.64
76321;BME280;65132;52.088;5.402;2023-03-16T08:56:22;101545.88;;;6.25;82.09
76321;BME280;65132;52.088;5.402;2023-03-16T08:58:48;101552.31;;;6.37;81.22
76321;BME280;65132;52.088;5.402;2023-03-16T09:01:19;101547.31;;;6.31;80.53
76321;BME280;65132;52.088;5.402;2023-03-16T09:03:46;101534.22;;;6.39;80.48
76321;BME280;65132;52.088;5.402;2023-03-16T09:06:14;101551.47;;;6.49;80.55
76321;BME280;65132;52.088;5.402;2023-03-16T09:08:44;101536.41;;;6.46;80.21
76321;BME280;65132;52.088;5.402;2023-03-16T09:11:16;101551.97;;;6.55;80.43
76321;BME280;65132;52.088;5.402;2023-03-16T09:13:48;101516.38;;;6.38;79.00
76321;BME280;65132;52.088;5.402;2023-03-16T09:16:18;101538.50;;;6.55;79.66
76321;BME280;65132;52.088;5.402;2023-03-16T09:18:48;101543.47;;;6.61;79.72
76321;BME280;65132;52.088;5.402;2023-03-16T09:21:15;101549.94;;;6.59;79.25
76321;BME280;65132;52.088;5.402;2023-03-16T09:23:42;101540.44;;;6.53;79.30
76321;BME280;65132;52.088;5.402;2023-03-16T09:26:18;101546.25;;;6.60;79.38
76321;BME280;65132;52.088;5.402;2023-03-16T09:28:45;101552.31;;;6.63;78.92
76321;BME280;65132;52.088;5.402;2023-03-16T09:31:18;101542.31;;;6.65;79.21
76321;BME280;65132;52.088;5.402;2023-03-16T09:33:45;101543.91;;;6.68;79.54
76321;BME280;65132;52.088;5.402;2023-03-16T09:36:12;101532.81;;;6.60;78.83
76321;BME280;65132;52.088;5.402;2023-03-16T09:38:39;101548.03;;;6.73;78.49
76321;BME280;65132;52.088;5.402;2023-03-16T09:41:09;101543.09;;;6.80;77.68
76321;BME280;65132;52.088;5.402;2023-03-16T09:44:16;101534.19;;;6.92;78.45
76321;BME280;65132;52.088;5.402;2023-03-16T09:46:49;101548.19;;;6.97;78.03
76321;BME280;65132;52.088;5.402;2023-03-16T09:49:20;101528.41;;;7.10;78.12
76321;BME280;65132;52.088;5.402;2023-03-16T09:51:57;101526.50;;;7.12;77.08
76321;BME280;65132;52.088;5.402;2023-03-16T09:54:30;101527.69;;;7.21;77.15
76321;BME280;65132;52.088;5.402;2023-03-16T09:56:59;101519.81;;;7.30;76.52
76321;BME280;65132;52.088;5.402;2023-03-16T09:59:26;101503.78;;;7.42;75.66
76321;BME280;65132;52.088;5.402;2023-03-16T10:02:41;101529.28;;;7.86;74.98
76321;BME280;65132;52.088;5.402;2023-03-16T10:05:14;101520.38;;;8.09;73.52
76321;BME280;65132;52.088;5.402;2023-03-16T10:07:49;101499.16;;;8.05;72.55
76321;BME280;65132;52.088;5.402;2023-03-16T10:10:51;101517.78;;;8.20;71.74
76321;BME280;65132;52.088;5.402;2023-03-16T10:21:39;101495.09;;;8.59;69.67
76321;BME280;65132;52.088;5.402;2023-03-16T10:26:55;101498.41;;;8.86;68.65
76321;BME280;65132;52.088;5.402;2023-03-16T10:29:22;101496.19;;;9.37;66.58
76321;BME280;65132;52.088;5.402;2023-03-16T10:31:48;101481.59;;;9.50;66.80
76321;BME280;65132;52.088;5.402;2023-03-16T10:34:18;101492.38;;;9.50;65.21
76321;BME280;65132;52.088;5.402;2023-03-16T10:36:48;101480.47;;;10.08;65.38
76321;BME280;65132;52.088;5.402;2023-03-16T10:39:17;101486.97;;;9.95;64.99
76321;BME280;65132;52.088;5.402;2023-03-16T10:41:54;101486.63;;;10.10;63.33
76321;BME280;65132;52.088;5.402;2023-03-16T10:44:23;101467.69;;;9.88;63.31
76321;BME280;65132;52.088;5.402;2023-03-16T10:47:01;101463.16;;;9.89;63.24
76321;BME280;65132;52.088;5.402;2023-03-16T10:52:10;101466.34;;;10.16;62.90
76321;BME280;65132;52.088;5.402;2023-03-16T10:54:38;101471.88;;;9.92;62.50
76321;BME280;65132;52.088;5.402;2023-03-16T10:57:25;101460.19;;;10.25;61.91
76321;BME280;65132;52.088;5.402;2023-03-16T11:00:41;101464.13;;;10.10;62.08
76321;BME280;65132;52.088;5.402;2023-03-16T11:03:25;101454.91;;;10.12;62.22
76321;BME280;65132;52.088;5.402;2023-03-16T11:05:59;101460.19;;;10.14;61.44
76321;BME280;65132;52.088;5.402;2023-03-16T11:08:34;101458.34;;;9.92;63.03
76321;BME280;65132;52.088;5.402;2023-03-16T11:11:15;101451.22;;;9.91;62.39
76321;BME280;65132;52.088;5.402;2023-03-16T11:13:45;101451.97;;;9.71;61.96
76321;BME280;65132;52.088;5.402;2023-03-16T11:18:56;101447.44;;;9.72;62.28
76321;BME280;65132;52.088;5.402;2023-03-16T11:24:37;101425.31;;;9.78;62.69
76321;BME280;65132;52.088;5.402;2023-03-16T11:27:14;101424.44;;;9.88;62.21
76321;BME280;65132;52.088;5.402;2023-03-16T11:30:00;101418.28;;;9.86;62.06
76321;BME280;65132;52.088;5.402;2023-03-16T11:32:32;101413.50;;;10.01;61.70
76321;BME280;65132;52.088;5.402;2023-03-16T11:38:34;101403.78;;;10.09;62.21
76321;BME280;65132;52.088;5.402;2023-03-16T11:41:10;101404.41;;;10.13;62.00
76321;BME280;65132;52.088;5.402;2023-03-16T11:43:54;101395.94;;;10.38;61.87
76321;BME280;65132;52.088;5.402;2023-03-16T11:46:35;101397.50;;;10.40;60.84
76321;BME280;65132;52.088;5.402;2023-03-16T11:55:00;101413.75;;;10.61;59.95
76321;BME280;65132;52.088;5.402;2023-03-16T11:57:42;101390.59;;;10.68;59.29
76321;BME280;65132;52.088;5.402;2023-03-16T12:00:29;101395.38;;;10.96;59.17
76321;BME280;65132;52.088;5.402;2023-03-16T12:03:20;101382.50;;;11.19;58.15
76321;BME280;65132;52.088;5.402;2023-03-16T12:05:54;101374.66;;;11.16;58.78
76321;BME280;65132;52.088;5.402;2023-03-16T12:08:56;101376.00;;;11.31;58.52
76321;BME280;65132;52.088;5.402;2023-03-16T12:11:46;101375.84;;;11.32;58.09
76321;BME280;65132;52.088;5.402;2023-03-16T12:14:40;101369.66;;;11.81;57.99
76321;BME280;65132;52.088;5.402;2023-03-16T12:17:15;101371.06;;;11.85;55.87
76321;BME280;65132;52.088;5.402;2023-03-16T12:20:02;101368.16;;;12.36;55.61
76321;BME280;65132;52.088;5.402;2023-03-16T12:22:44;101366.41;;;12.16;54.47
76321;BME280;65132;52.088;5.402;2023-03-16T12:25:17;101352.59;;;12.38;54.47
76321;BME280;65132;52.088;5.402;2023-03-16T12:27:47;101348.03;;;12.94;53.55
76321;BME280;65132;52.088;5.402;2023-03-16T12:30:46;101337.91;;;13.05;51.06
76321;BME280;65132;52.088;5.402;2023-03-16T12:44:22;101323.16;;;12.89;50.75
76321;BME280;65132;52.088;5.402;2023-03-16T12:47:01;101332.94;;;12.72;50.30
76321;BME280;65132;52.088;5.402;2023-03-16T12:49:39;101317.63;;;12.90;49.77
76321;BME280;65132;52.088;5.402;2023-03-16T12:52:09;101325.94;;;13.26;49.37
76321;BME280;65132;52.088;5.402;2023-03-16T12:55:04;101315.25;;;13.14;50.10
76321;BME280;65132;52.088;5.402;2023-03-16T12:57:31;101310.88;;;13.04;49.04
76321;BME280;65132;52.088;5.402;2023-03-16T13:00:00;101291.19;;;13.19;49.82
76321;BME280;65132;52.088;5.402;2023-03-16T13:02:35;101278.06;;;13.42;50.16
76321;BME280;65132;52.088;5.402;2023-03-16T13:05:11;101273.06;;;14.17;46.55
76321;BME280;65132;52.088;5.402;2023-03-16T13:07:49;101277.97;;;13.96;46.97
76321;BME280;65132;52.088;5.402;2023-03-16T13:10:18;101284.28;;;14.14;47.13
76321;BME280;65132;52.088;5.402;2023-03-16T13:12:48;101260.44;;;13.64;46.58
76321;BME280;65132;52.088;5.402;2023-03-16T13:17:49;101257.59;;;13.83;45.91
76321;BME280;65132;52.088;5.402;2023-03-16T13:20:34;101261.19;;;13.83;46.30
76321;BME280;65132;52.088;5.402;2023-03-16T13:28:39;101251.88;;;14.64;42.85
76321;BME280;65132;52.088;5.402;2023-03-16T13:31:27;101261.78;;;14.73;43.13
76321;BME280;65132;52.088;5.402;2023-03-16T13:33:55;101273.94;;;14.61;44.23
76321;BME280;65132;52.088;5.402;2023-03-16T13:36:23;101238.69;;;14.60;42.97
76321;BME280;65132;52.088;5.402;2023-03-16T13:41:31;101231.97;;;15.05;42.28
76321;BME280;65132;52.088;5.402;2023-03-16T13:44:03;101222.59;;;15.49;42.93
76321;BME280;65132;52.088;5.402;2023-03-16T13:46:30;101215.38;;;16.54;40.89
76321;BME280;65132;52.088;5.402;2023-03-16T13:48:59;101201.38;;;16.49;40.33
76321;BME280;65132;52.088;5.402;2023-03-16T13:51:37;101214.66;;;16.28;41.11
76321;BME280;65132;52.088;5.402;2023-03-16T13:54:14;101213.63;;;15.97;39.74
76321;BME280;65132;52.088;5.402;2023-03-16T13:56:43;101202.69;;;16.69;39.93
76321;BME280;65132;52.088;5.402;2023-03-16T13:59:25;101207.81;;;16.64;39.63
76321;BME280;65132;52.088;5.402;2023-03-16T14:01:57;101205.13;;;16.08;40.62
76321;BME280;65132;52.088;5.402;2023-03-16T14:04:27;101210.72;;;15.58;40.58
76321;BME280;65132;52.088;5.402;2023-03-16T14:06:57;101204.22;;;15.59;40.28
76321;BME280;65132;52.088;5.402;2023-03-16T14:09:33;101211.91;;;15.72;40.85
76321;BME280;65132;52.088;5.402;2023-03-16T14:12:00;101201.03;;;15.88;41.04